sensor_id;sensor_type;location;lat;lon;timestamp;pressure;altitude;pressure_sealevel;temperature;humidity
68634;BME280;55625;47.072;22.192;2023-02-01T00:02:02;99762.25;;;0.58;100.00
68634;BME280;55625;47.072;22.192;2023-02-01T00:04:28;99760.25;;;0.59;100.00
68634;BME280;55625;47.072;22.192;2023-02-01T00:06:54;99756.75;;;0.66;100.00
68634;BME280;55625;47.072;22.192;2023-02-01T00:09:20;99756.75;;;0.66;99.91
68634;BME280;55625;47.072;22.192;2023-02-01T00:11:46;99751.19;;;0.69;100.00
68634;BME280;55625;47.072;22.192;2023-02-01T00:14:12;99754.38;;;0.68;99.42
68634;BME280;55625;47.072;22.192;2023-02-01T00:16:38;99752.78;;;0.67;99.77
68634;BME280;55625;47.072;22.192;2023-02-01T00:19:09;99746.78;;;0.65;100.00
68634;BME280;55625;47.072;22.192;2023-02-01T00:21:36;99734.81;;;0.64;99.94
68634;BME280;55625;47.072;22.192;2023-02-01T00:24:03;99737.94;;;0.59;100.00
68634;BME280;55625;47.072;22.192;2023-02-01T00:26:38;99727.94;;;0.54;100.00
68634;BME280;55625;47.072;22.192;2023-02-01T00:29:10;99718.78;;;0.57;100.00
68634;BME280;55625;47.072;22.192;2023-02-01T00:31:36;99708.78;;;0.56;100.00
68634;BME280;55625;47.072;22.192;2023-02-01T00:34:03;99714.38;;;0.56;100.00
68634;BME280;55625;47.072;22.192;2023-02-01T00:36:29;99720.44;;;0.62;100.00
68634;BME280;55625;47.072;22.192;2023-02-01T00:38:55;99723.66;;;0.68;100.00
68634;BME280;55625;47.072;22.192;2023-02-01T00:41:22;99726.84;;;0.66;100.00
68634;BME280;55625;47.072;22.192;2023-02-01T00:43:50;99728.03;;;0.65;100.00
68634;BME280;55625;47.072;22.192;2023-02-01T00:46:18;99730.44;;;0.67;100.00
68634;BME280;55625;47.072;22.192;2023-02-01T00:48:44;99732.88;;;0.72;100.00
68634;BME280;55625;47.072;22.192;2023-02-01T00:51:14;99722.53;;;0.76;100.00
68634;BME280;55625;47.072;22.192;2023-02-01T00:53:40;99734.84;;;0.71;100.00
68634;BME280;55625;47.072;22.192;2023-02-01T00:56:07;99735.69;;;0.75;100.00
68634;BME280;55625;47.072;22.192;2023-02-01T00:58:33;99746.94;;;0.86;100.00
68634;BME280;55625;47.072;22.192;2023-02-01T01:01:17;99744.53;;;0.88;100.00
68634;BME280;55625;47.072;22.192;2023-02-01T01:03:47;99735.72;;;0.82;100.00
68634;BME280;55625;47.072;22.192;2023-02-01T01:06:15;99735.72;;;0.79;100.00
68634;BME280;55625;47.072;22.192;2023-02-01T01:08:42;99730.50;;;0.77;100.00
68634;BME280;55625;47.072;22.192;2023-02-01T01:11:11;99722.91;;;0.74;100.00
68634;BME280;55625;47.072;22.192;2023-02-01T01:13:37;99728.94;;;0.83;100.00
68634;BME280;55625;47.072;22.192;2023-02-01T01:16:05;99723.47;;;0.94;100.00
68634;BME280;55625;47.072;22.192;2023-02-01T01:18:32;99726.19;;;0.90;100.00
68634;BME280;55625;47.072;22.192;2023-02-01T01:20:59;99726.97;;;0.84;100.00
68634;BME280;55625;47.072;22.192;2023-02-01T01:23:26;99737.06;;;0.99;100.00
68634;BME280;55625;47.072;22.192;2023-02-01T01:25:52;99736.25;;;0.99;100.00
68634;BME280;55625;47.072;22.192;2023-02-01T01:28:18;99734.28;;;1.03;100.00
68634;BME280;55625;47.072;22.192;2023-02-01T01:30:44;99733.09;;;1.04;100.00
68634;BME280;55625;47.072;22.192;2023-02-01T01:33:10;99740.44;;;1.26;100.00
68634;BME280;55625;47.072;22.192;2023-02-01T01:35:36;99743.63;;;1.28;100.00
68634;BME280;55625;47.072;22.192;2023-02-01T01:38:02;99735.66;;;1.30;100.00
68634;BME280;55625;47.072;22.192;2023-02-01T01:40:30;99728.41;;;1.22;100.00
68634;BME280;55625;47.072;22.192;2023-02-01T01:42:57;99724.75;;;1.11;100.00
68634;BME280;55625;47.072;22.192;2023-02-01T01:48:01;99712.38;;;1.12;100.00
68634;BME280;55625;47.072;22.192;2023-02-01T01:50:35;99700.81;;;1.13;100.00
68634;BME280;55625;47.072;22.192;2023-02-01T01:53:06;99691.63;;;1.13;100.00
68634;BME280;55625;47.072;22.192;2023-02-01T01:55:37;99682.03;;;1.07;100.00
68634;BME280;55625;47.072;22.192;2023-02-01T01:58:08;99681.25;;;1.17;100.00
68634;BME280;55625;47.072;22.192;2023-02-01T02:00:36;99680.47;;;1.20;100.00
68634;BME280;55625;47.072;22.192;2023-02-01T02:03:32;99679.66;;;1.16;100.00
68634;BME280;55625;47.072;22.192;2023-02-01T02:06:02;99680.56;;;1.31;100.00
68634;BME280;55625;47.072;22.192;2023-02-01T02:08:28;99674.13;;;1.23;100.00
68634;BME280;55625;47.072;22.192;2023-02-01T02:10:55;99672.56;;;1.29;100.00
68634;BME280;55625;47.072;22.192;2023-02-01T02:13:40;99655.81;;;1.36;100.00
68634;BME280;55625;47.072;22.192;2023-02-01T02:17:10;99664.94;;;1.22;100.00
68634;BME280;55625;47.072;22.192;2023-02-01T02:22:48;99659.69;;;1.14;100.00
68634;BME280;55625;47.072;22.192;2023-02-01T02:39:55;99632.22;;;1.30;100.00
68634;BME280;55625;47.072;22.192;2023-02-01T02:42:29;99626.22;;;1.24;100.00
68634;BME280;55625;47.072;22.192;2023-02-01T02:45:32;99631.03;;;1.35;100.00
68634;BME280;55625;47.072;22.192;2023-02-01T02:48:40;99638.22;;;1.32;100.00
68634;BME280;55625;47.072;22.192;2023-02-01T02:51:47;99624.22;;;1.25;100.00
68634;BME280;55625;47.072;22.192;2023-02-01T02:54:39;99627.88;;;1.47;100.00
68634;BME280;55625;47.072;22.192;2023-02-01T02:57:33;99634.31;;;1.54;100.00
68634;BME280;55625;47.072;22.192;2023-02-01T03:00:24;99624.34;;;1.64;100.00
68634;BME280;55625;47.072;22.192;2023-02-01T03:03:10;99625.53;;;1.60;100.00
68634;BME280;55625;47.072;22.192;2023-02-01T03:05:56;99614.72;;;1.51;100.00
68634;BME280;55625;47.072;22.192;2023-02-01T03:08:28;99616.34;;;1.59;100.00
68634;BME280;55625;47.072;22.192;2023-02-01T03:11:10;99621.53;;;1.61;100.00
68634;BME280;55625;47.072;22.192;2023-02-01T03:16:23;99625.53;;;1.60;100.00
68634;BME280;55625;47.072;22.192;2023-02-01T03:19:24;99621.97;;;1.73;100.00
68634;BME280;55625;47.072;22.192;2023-02-01T03:22:01;99625.97;;;1.76;100.00
68634;BME280;55625;47.072;22.192;2023-02-01T03:24:56;99624.38;;;1.82;100.00
68634;BME280;55625;47.072;22.192;2023-02-01T03:27:27;99621.16;;;1.80;100.00
68634;BME280;55625;47.072;22.192;2023-02-01T03:30:20;99615.56;;;1.66;100.00
68634;BME280;55625;47.072;22.192;2023-02-01T03:32:50;99619.16;;;1.70;100.00
68634;BME280;55625;47.072;22.192;2023-02-01T03:40:40;99613.16;;;1.61;100.00
68634;BME280;55625;47.072;22.192;2023-02-01T03:43:14;99611.56;;;1.74;100.00
68634;BME280;55625;47.072;22.192;2023-02-01T03:45:47;99620.75;;;1.71;100.00
68634;BME280;55625;47.072;22.192;2023-02-01T03:48:16;99621.16;;;1.66;100.00
68634;BME280;55625;47.072;22.192;2023-02-01T03:50:50;99614.75;;;1.62;100.00
68634;BME280;55625;47.072;22.192;2023-02-01T03:53:21;99608.75;;;1.60;100.00
68634;BME280;55625;47.072;22.192;2023-02-01T03:55:48;99608.75;;;1.56;100.00
68634;BME280;55625;47.072;22.192;2023-02-01T03:58:22;99613.50;;;1.41;100.00
68634;BME280;55625;47.072;22.192;2023-02-01T04:00:57;99619.09;;;1.41;100.00
68634;BME280;55625;47.072;22.192;2023-02-01T04:03:24;99612.69;;;1.34;100.00
68634;BME280;55625;47.072;22.192;2023-02-01T04:05:51;99603.91;;;1.42;100.00
68634;BME280;55625;47.072;22.192;2023-02-01T04:08:20;99601.09;;;1.39;100.00
68634;BME280;55625;47.072;22.192;2023-02-01T04:10:47;99606.69;;;1.35;100.00
68634;BME280;55625;47.072;22.192;2023-02-01T04:13:13;99603.47;;;1.26;100.00
68634;BME280;55625;47.072;22.192;2023-02-01T04:15:39;99605.84;;;1.24;100.00
68634;BME280;55625;47.072;22.192;2023-02-01T04:18:05;99609.41;;;1.17;100.00
68634;BME280;55625;47.072;22.192;2023-02-01T04:20:31;99613.00;;;1.18;100.00
68634;BME280;55625;47.072;22.192;2023-02-01T04:22:57;99605.41;;;1.22;100.00
68634;BME280;55625;47.072;22.192;2023-02-01T04:25:23;99607.88;;;1.27;100.00
68634;BME280;55625;47.072;22.192;2023-02-01T04:27:49;99603.88;;;1.35;100.00
68634;BME280;55625;47.072;22.192;2023-02-01T04:30:15;99593.50;;;1.32;100.00
68634;BME280;55625;47.072;22.192;2023-02-01T04:32:41;99607.88;;;1.34;100.00
68634;BME280;55625;47.072;22.192;2023-02-01T04:35:08;99615.06;;;1.28;100.00
68634;BME280;55625;47.072;22.192;2023-02-01T04:37:35;99607.88;;;1.34;100.00
68634;BME280;55625;47.072;22.192;2023-02-01T04:40:01;99603.88;;;1.28;100.00
68634;BME280;55625;47.072;22.192;2023-02-01T04:42:29;99593.53;;;1.43;100.00
68634;BME280;55625;47.072;22.192;2023-02-01T04:44:54;99603.50;;;1.47;100.00
68634;BME280;55625;47.072;22.192;2023-02-01T04:47:20;99604.75;;;1.53;100.00
68634;BME280;55625;47.072;22.192;2023-02-01T04:49:46;99607.16;;;1.59;100.00
68634;BME280;55625;47.072;22.192;2023-02-01T04:52:12;99598.72;;;1.51;100.00
68634;BME280;55625;47.072;22.192;2023-02-01T04:54:38;99606.31;;;1.44;100.00
68634;BME280;55625;47.072;22.192;2023-02-01T04:57:04;99614.38;;;1.74;100.00
68634;BME280;55625;47.072;22.192;2023-02-01T04:59:29;99611.22;;;1.86;100.00
68634;BME280;55625;47.072;22.192;2023-02-01T05:01:55;99619.22;;;1.91;100.00
68634;BME280;55625;47.072;22.192;2023-02-01T05:04:21;99602.03;;;1.89;100.00
68634;BME280;55625;47.072;22.192;2023-02-01T05:06:47;99610.41;;;1.93;100.00
68634;BME280;55625;47.072;22.192;2023-02-01T05:09:13;99600.81;;;1.86;100.00
68634;BME280;55625;47.072;22.192;2023-02-01T05:11:39;99594.81;;;1.88;100.00
68634;BME280;55625;47.072;22.192;2023-02-01T05:14:23;99613.56;;;1.73;100.00
68634;BME280;55625;47.072;22.192;2023-02-01T05:16:49;99606.81;;;1.85;100.00
68634;BME280;55625;47.072;22.192;2023-02-01T05:19:15;99608.00;;;1.84;100.00
68634;BME280;55625;47.072;22.192;2023-02-01T05:21:41;99606.78;;;1.78;100.00
68634;BME280;55625;47.072;22.192;2023-02-01T05:24:08;99601.59;;;1.83;100.00
68634;BME280;55625;47.072;22.192;2023-02-01T05:26:46;99612.81;;;1.98;100.00
68634;BME280;55625;47.072;22.192;2023-02-01T05:29:12;99610.00;;;1.98;100.00
68634;BME280;55625;47.072;22.192;2023-02-01T05:31:39;99610.00;;;2.01;100.00
68634;BME280;55625;47.072;22.192;2023-02-01T05:34:05;99601.22;;;1.99;100.00
68634;BME280;55625;47.072;22.192;2023-02-01T05:36:31;99600.81;;;2.01;100.00
68634;BME280;55625;47.072;22.192;2023-02-01T05:38:57;99588.03;;;2.03;100.00
68634;BME280;55625;47.072;22.192;2023-02-01T05:41:23;99595.22;;;1.97;99.90
68634;BME280;55625;47.072;22.192;2023-02-01T05:43:49;99589.63;;;2.08;100.00
68634;BME280;55625;47.072;22.192;2023-02-01T05:46:15;99584.41;;;2.06;100.00
68634;BME280;55625;47.072;22.192;2023-02-01T05:48:42;99597.22;;;1.97;100.00
68634;BME280;55625;47.072;22.192;2023-02-01T05:51:09;99602.81;;;1.90;99.56
68634;BME280;55625;47.072;22.192;2023-02-01T05:53:36;99604.03;;;1.89;100.00
68634;BME280;55625;47.072;22.192;2023-02-01T05:56:02;99602.41;;;2.09;99.29
68634;BME280;55625;47.072;22.192;2023-02-01T05:58:29;99607.22;;;2.08;98.80
68634;BME280;55625;47.072;22.192;2023-02-01T06:00:55;99611.22;;;1.93;99.30
68634;BME280;55625;47.072;22.192;2023-02-01T06:03:21;99614.41;;;1.95;99.17
68634;BME280;55625;47.072;22.192;2023-02-01T06:05:47;99625.22;;;2.00;99.17
68634;BME280;55625;47.072;22.192;2023-02-01T06:08:14;99630.41;;;1.98;99.40
68634;BME280;55625;47.072;22.192;2023-02-01T06:10:40;99621.59;;;2.03;98.93
68634;BME280;55625;47.072;22.192;2023-02-01T06:13:06;99625.22;;;2.04;98.57
68634;BME280;55625;47.072;22.192;2023-02-01T06:15:32;99629.59;;;2.08;98.46
68634;BME280;55625;47.072;22.192;2023-02-01T06:17:59;99625.22;;;2.22;97.47
68634;BME280;55625;47.072;22.192;2023-02-01T06:20:25;99631.63;;;2.15;98.55
68634;BME280;55625;47.072;22.192;2023-02-01T06:22:50;99627.59;;;2.05;98.72
68634;BME280;55625;47.072;22.192;2023-02-01T06:25:18;99622.00;;;2.05;99.12
68634;BME280;55625;47.072;22.192;2023-02-01T06:27:45;99628.81;;;2.11;98.60
68634;BME280;55625;47.072;22.192;2023-02-01T06:30:12;99638.44;;;2.25;98.59
68634;BME280;55625;47.072;22.192;2023-02-01T06:32:39;99628.41;;;2.09;98.55
68634;BME280;55625;47.072;22.192;2023-02-01T06:35:08;99623.59;;;2.06;99.04
68634;BME280;55625;47.072;22.192;2023-02-01T06:37:37;99618.44;;;2.15;98.37
68634;BME280;55625;47.072;22.192;2023-02-01T06:40:04;99624.03;;;2.15;98.51
68634;BME280;55625;47.072;22.192;2023-02-01T06:42:30;99630.00;;;2.14;99.13
68634;BME280;55625;47.072;22.192;2023-02-01T06:44:56;99632.00;;;2.06;99.47
68634;BME280;55625;47.072;22.192;2023-02-01T06:47:21;99631.19;;;1.99;100.00
68634;BME280;55625;47.072;22.192;2023-02-01T06:49:47;99643.19;;;2.06;100.00
68634;BME280;55625;47.072;22.192;2023-02-01T06:52:13;99636.81;;;2.02;100.00
68634;BME280;55625;47.072;22.192;2023-02-01T06:54:39;99647.22;;;2.16;99.77
68634;BME280;55625;47.072;22.192;2023-02-01T06:57:05;99648.00;;;2.09;99.11
68634;BME280;55625;47.072;22.192;2023-02-01T06:59:31;99651.63;;;2.21;99.60
68634;BME280;55625;47.072;22.192;2023-02-01T07:01:57;99656.03;;;2.14;99.42
68634;BME280;55625;47.072;22.192;2023-02-01T07:04:22;99648.81;;;2.21;99.04
68634;BME280;55625;47.072;22.192;2023-02-01T07:06:48;99652.00;;;2.12;98.88
68634;BME280;55625;47.072;22.192;2023-02-01T07:09:14;99661.22;;;2.27;99.08
68634;BME280;55625;47.072;22.192;2023-02-01T07:11:40;99661.63;;;2.18;100.00
68634;BME280;55625;47.072;22.192;2023-02-01T07:14:12;99662.41;;;2.18;99.23
68634;BME280;55625;47.072;22.192;2023-02-01T07:16:38;99653.22;;;2.22;98.80
68634;BME280;55625;47.072;22.192;2023-02-01T07:19:04;99663.22;;;2.26;98.52
68634;BME280;55625;47.072;22.192;2023-02-01T07:21:30;99666.41;;;2.17;98.68
68634;BME280;55625;47.072;22.192;2023-02-01T07:23:58;99667.22;;;2.14;99.62
68634;BME280;55625;47.072;22.192;2023-02-01T07:26:24;99672.03;;;2.17;99.55
68634;BME280;55625;47.072;22.192;2023-02-01T07:28:49;99670.41;;;2.24;98.87
68634;BME280;55625;47.072;22.192;2023-02-01T07:31:18;99683.22;;;2.35;97.09
68634;BME280;55625;47.072;22.192;2023-02-01T07:33:46;99679.22;;;2.29;97.86
68634;BME280;55625;47.072;22.192;2023-02-01T07:36:15;99683.22;;;2.39;96.86
68634;BME280;55625;47.072;22.192;2023-02-01T07:38:42;99665.63;;;2.60;94.63
68634;BME280;55625;47.072;22.192;2023-02-01T07:41:08;99677.22;;;2.65;94.19
68634;BME280;55625;47.072;22.192;2023-02-01T07:43:35;99690.41;;;2.72;94.03
68634;BME280;55625;47.072;22.192;2023-02-01T07:46:02;99676.41;;;2.61;95.31
68634;BME280;55625;47.072;22.192;2023-02-01T07:48:29;99682.03;;;2.65;94.54
68634;BME280;55625;47.072;22.192;2023-02-01T07:53:25;99681.63;;;2.77;93.56
68634;BME280;55625;47.072;22.192;2023-02-01T07:55:51;99689.63;;;2.71;93.97
68634;BME280;55625;47.072;22.192;2023-02-01T07:58:17;99686.41;;;2.69;93.79
68634;BME280;55625;47.072;22.192;2023-02-01T08:00:43;99694.44;;;2.82;92.92
68634;BME280;55625;47.072;22.192;2023-02-01T08:03:27;99699.22;;;2.70;93.67
68634;BME280;55625;47.072;22.192;2023-02-01T08:05:56;99689.22;;;2.66;94.21
68634;BME280;55625;47.072;22.192;2023-02-01T08:08:23;99689.63;;;2.68;94.16
68634;BME280;55625;47.072;22.192;2023-02-01T08:10:49;99707.63;;;2.70;94.21
68634;BME280;55625;47.072;22.192;2023-02-01T08:13:15;99695.63;;;2.70;93.92
68634;BME280;55625;47.072;22.192;2023-02-01T08:15:41;99690.81;;;2.70;94.54
68634;BME280;55625;47.072;22.192;2023-02-01T08:18:06;99696.81;;;2.69;94.24
68634;BME280;55625;47.072;22.192;2023-02-01T08:20:33;99687.59;;;2.75;94.53
68634;BME280;55625;47.072;22.192;2023-02-01T08:23:01;99687.59;;;2.90;93.50
68634;BME280;55625;47.072;22.192;2023-02-01T08:25:27;99692.03;;;2.80;94.51
68634;BME280;55625;47.072;22.192;2023-02-01T08:27:54;99688.41;;;2.83;93.89
68634;BME280;55625;47.072;22.192;2023-02-01T08:30:20;99680.03;;;2.79;94.34
68634;BME280;55625;47.072;22.192;2023-02-01T08:32:47;99684.00;;;2.86;92.92
68634;BME280;55625;47.072;22.192;2023-02-01T08:35:13;99688.81;;;2.89;93.63
68634;BME280;55625;47.072;22.192;2023-02-01T08:37:39;99678.41;;;2.78;93.63
68634;BME280;55625;47.072;22.192;2023-02-01T08:40:06;99693.22;;;2.75;94.54
68634;BME280;55625;47.072;22.192;2023-02-01T08:42:33;99686.03;;;2.78;94.27
68634;BME280;55625;47.072;22.192;2023-02-01T08:45:25;99698.41;;;2.88;92.74
68634;BME280;55625;47.072;22.192;2023-02-01T08:47:54;99689.63;;;2.86;93.46
68634;BME280;55625;47.072;22.192;2023-02-01T08:50:21;99699.22;;;2.88;94.00
68634;BME280;55625;47.072;22.192;2023-02-01T08:52:48;99705.63;;;2.82;94.42
68634;BME280;55625;47.072;22.192;2023-02-01T08:55:14;99703.22;;;2.91;94.23
68634;BME280;55625;47.072;22.192;2023-02-01T08:57:40;99703.63;;;2.89;94.74
68634;BME280;55625;47.072;22.192;2023-02-01T09:00:12;99704.00;;;2.95;94.91
68634;BME280;55625;47.072;22.192;2023-02-01T09:02:39;99709.19;;;3.00;94.47
68634;BME280;55625;47.072;22.192;2023-02-01T09:05:05;99708.84;;;2.84;95.10
68634;BME280;55625;47.072;22.192;2023-02-01T09:07:32;99696.81;;;2.94;95.72
68634;BME280;55625;47.072;22.192;2023-02-01T09:09:58;99700.81;;;2.93;95.81
68634;BME280;55625;47.072;22.192;2023-02-01T09:12:30;99707.59;;;2.99;95.98
68634;BME280;55625;47.072;22.192;2023-02-01T09:14:58;99705.59;;;3.03;96.24
68634;BME280;55625;47.072;22.192;2023-02-01T09:17:26;99706.38;;;3.14;95.03
68634;BME280;55625;47.072;22.192;2023-02-01T09:19:52;99709.53;;;3.30;94.38
68634;BME280;55625;47.072;22.192;2023-02-01T09:22:18;99716.72;;;3.46;93.24
68634;BME280;55625;47.072;22.192;2023-02-01T09:24:44;99712.28;;;3.52;92.19
68634;BME280;55625;47.072;22.192;2023-02-01T09:27:10;99702.28;;;3.51;92.70
68634;BME280;55625;47.072;22.192;2023-02-01T09:29:36;99702.69;;;3.46;93.03
68634;BME280;55625;47.072;22.192;2023-02-01T09:32:01;99702.25;;;3.58;93.29
68634;BME280;55625;47.072;22.192;2023-02-01T09:34:28;99691.34;;;3.74;92.87
68634;BME280;55625;47.072;22.192;2023-02-01T09:36:54;99683.66;;;3.85;92.42
68634;BME280;55625;47.072;22.192;2023-02-01T09:39:19;99690.44;;;3.98;91.11
68634;BME280;55625;47.072;22.192;2023-02-01T09:41:48;99687.91;;;4.15;90.08
68634;BME280;55625;47.072;22.192;2023-02-01T09:46:58;99693.09;;;4.20;91.21
68634;BME280;55625;47.072;22.192;2023-02-01T09:49:34;99702.66;;;4.33;89.45
68634;BME280;55625;47.072;22.192;2023-02-01T09:52:05;99696.66;;;4.31;89.46
68634;BME280;55625;47.072;22.192;2023-02-01T09:55:01;99693.81;;;4.34;88.45
68634;BME280;55625;47.072;22.192;2023-02-01T09:58:24;99695.47;;;4.21;89.29
68634;BME280;55625;47.072;22.192;2023-02-01T10:00:37;99701.78;;;4.40;88.87
68634;BME280;55625;47.072;22.192;2023-02-01T10:03:04;99701.50;;;4.20;89.44
68634;BME280;55625;47.072;22.192;2023-02-01T10:09:19;99703.47;;;4.30;88.79
68634;BME280;55625;47.072;22.192;2023-02-01T10:20:48;99687.84;;;4.29;89.85
68634;BME280;55625;47.072;22.192;2023-02-01T10:26:21;99687.03;;;4.25;90.01
68634;BME280;55625;47.072;22.192;2023-02-01T10:29:03;99684.13;;;4.39;90.74
68634;BME280;55625;47.072;22.192;2023-02-01T10:31:35;99683.25;;;4.49;89.88
68634;BME280;55625;47.072;22.192;2023-02-01T10:34:32;99683.56;;;4.58;90.28
68634;BME280;55625;47.072;22.192;2023-02-01T10:39:55;99677.41;;;4.74;89.50
68634;BME280;55625;47.072;22.192;2023-02-01T10:42:29;99673.41;;;4.75;89.04
68634;BME280;55625;47.072;22.192;2023-02-01T10:44:59;99665.59;;;4.93;88.64
68634;BME280;55625;47.072;22.192;2023-02-01T10:47:27;99660.09;;;5.20;86.28
68634;BME280;55625;47.072;22.192;2023-02-01T10:51:05;99668.13;;;5.22;85.22
68634;BME280;55625;47.072;22.192;2023-02-01T10:53:24;99664.03;;;5.26;85.33
68634;BME280;55625;47.072;22.192;2023-02-01T10:55:53;99661.44;;;5.43;83.97
68634;BME280;55625;47.072;22.192;2023-02-01T10:58:46;99657.25;;;5.58;83.66
68634;BME280;55625;47.072;22.192;2023-02-01T11:01:39;99657.47;;;5.71;83.24
68634;BME280;55625;47.072;22.192;2023-02-01T11:04:10;99653.53;;;5.95;81.84
68634;BME280;55625;47.072;22.192;2023-02-01T11:07:07;99645.84;;;5.99;80.78
68634;BME280;55625;47.072;22.192;2023-02-01T11:09:40;99644.25;;;6.25;81.00
68634;BME280;55625;47.072;22.192;2023-02-01T11:12:35;99644.41;;;6.65;80.36
68634;BME280;55625;47.072;22.192;2023-02-01T11:15:14;99650.53;;;6.83;79.43
68634;BME280;55625;47.072;22.192;2023-02-01T11:17:46;99664.38;;;6.97;78.17
68634;BME280;55625;47.072;22.192;2023-02-01T11:20:40;99654.94;;;6.84;76.11
68634;BME280;55625;47.072;22.192;2023-02-01T11:23:19;99648.63;;;6.76;76.43
68634;BME280;55625;47.072;22.192;2023-02-01T11:26:24;99643.28;;;6.59;76.81
68634;BME280;55625;47.072;22.192;2023-02-01T11:29:15;99639.88;;;6.47;78.23
68634;BME280;55625;47.072;22.192;2023-02-01T11:31:44;99633.97;;;6.38;78.05
68634;BME280;55625;47.072;22.192;2023-02-01T11:34:22;99622.81;;;6.31;77.79
68634;BME280;55625;47.072;22.192;2023-02-01T11:36:51;99628.00;;;6.33;78.20
68634;BME280;55625;47.072;22.192;2023-02-01T11:39:38;99628.19;;;6.22;78.24
68634;BME280;55625;47.072;22.192;2023-02-01T11:42:16;99620.97;;;6.21;78.07
68634;BME280;55625;47.072;22.192;2023-02-01T11:44:45;99619.44;;;6.16;78.01
68634;BME280;55625;47.072;22.192;2023-02-01T11:47:38;99615.75;;;5.93;80.40
68634;BME280;55625;47.072;22.192;2023-02-01T11:50:17;99618.88;;;5.98;81.05
68634;BME280;55625;47.072;22.192;2023-02-01T12:06:58;99609.34;;;5.88;78.34
68634;BME280;55625;47.072;22.192;2023-02-01T12:10:03;99609.41;;;5.85;78.66
68634;BME280;55625;47.072;22.192;2023-02-01T12:30:02;99584.78;;;5.62;79.96
68634;BME280;55625;47.072;22.192;2023-02-01T12:39:32;99578.94;;;5.76;80.46
68634;BME280;55625;47.072;22.192;2023-02-01T12:42:29;99580.53;;;5.77;80.49
68634;BME280;55625;47.072;22.192;2023-02-01T12:45:26;99576.88;;;5.80;80.35
68634;BME280;55625;47.072;22.192;2023-02-01T12:48:22;99583.66;;;5.86;79.68
68634;BME280;55625;47.072;22.192;2023-02-01T12:51:11;99582.94;;;5.79;80.89
68634;BME280;55625;47.072;22.192;2023-02-01T12:56:55;99575.69;;;5.78;80.35
68634;BME280;55625;47.072;22.192;2023-02-01T12:59:40;99575.34;;;5.76;80.63
68634;BME280;55625;47.072;22.192;2023-02-01T13:03:03;99567.78;;;5.69;81.73
68634;BME280;55625;47.072;22.192;2023-02-01T13:06:05;99568.69;;;5.63;82.08
68634;BME280;55625;47.072;22.192;2023-02-01T13:14:29;99568.09;;;5.48;81.88
68634;BME280;55625;47.072;22.192;2023-02-01T13:17:23;99561.09;;;5.59;80.80
68634;BME280;55625;47.072;22.192;2023-02-01T13:20:22;99566.38;;;5.57;81.00
68634;BME280;55625;47.072;22.192;2023-02-01T13:23:02;99558.25;;;5.63;81.73
68634;BME280;55625;47.072;22.192;2023-02-01T13:25:52;99555.75;;;5.69;79.69
68634;BME280;55625;47.072;22.192;2023-02-01T13:28:41;99559.19;;;5.53;80.64
68634;BME280;55625;47.072;22.192;2023-02-01T13:42:56;99560.75;;;5.57;78.02
68634;BME280;55625;47.072;22.192;2023-02-01T13:45:30;99568.94;;;5.45;79.24
68634;BME280;55625;47.072;22.192;2023-02-01T13:48:03;99566.03;;;5.52;79.41
68634;BME280;55625;47.072;22.192;2023-02-01T13:50:36;99561.91;;;5.29;80.51
68634;BME280;55625;47.072;22.192;2023-02-01T13:53:18;99561.16;;;5.25;80.90
68634;BME280;55625;47.072;22.192;2023-02-01T13:55:58;99562.75;;;5.26;79.43
68634;BME280;55625;47.072;22.192;2023-02-01T13:58:39;99556.66;;;5.32;80.68
68634;BME280;55625;47.072;22.192;2023-02-01T14:03:58;99554.59;;;5.36;79.51
68634;BME280;55625;47.072;22.192;2023-02-01T14:11:54;99547.59;;;5.17;81.03
68634;BME280;55625;47.072;22.192;2023-02-01T14:19:29;99531.50;;;5.17;82.06
68634;BME280;55625;47.072;22.192;2023-02-01T14:22:00;99525.94;;;5.14;82.46
68634;BME280;55625;47.072;22.192;2023-02-01T14:24:32;99517.38;;;5.24;81.31
68634;BME280;55625;47.072;22.192;2023-02-01T14:29:40;99518.03;;;5.36;81.52
68634;BME280;55625;47.072;22.192;2023-02-01T14:32:22;99527.56;;;5.42;80.66
68634;BME280;55625;47.072;22.192;2023-02-01T14:34:55;99517.44;;;5.48;79.14
68634;BME280;55625;47.072;22.192;2023-02-01T14:42:47;99517.22;;;5.35;79.64
68634;BME280;55625;47.072;22.192;2023-02-01T14:50:35;99521.09;;;5.14;81.02
68634;BME280;55625;47.072;22.192;2023-02-01T14:53:17;99516.84;;;5.03;81.63
68634;BME280;55625;47.072;22.192;2023-02-01T14:58:50;99523.44;;;4.89;83.00
68634;BME280;55625;47.072;22.192;2023-02-01T15:04:04;99523.00;;;4.94;83.12
68634;BME280;55625;47.072;22.192;2023-02-01T15:06:39;99524.84;;;4.74;84.28
68634;BME280;55625;47.072;22.192;2023-02-01T15:09:26;99514.50;;;4.63;85.74
68634;BME280;55625;47.072;22.192;2023-02-01T15:14:46;99520.22;;;4.53;88.01
68634;BME280;55625;47.072;22.192;2023-02-01T15:17:24;99522.88;;;4.33;89.29
68634;BME280;55625;47.072;22.192;2023-02-01T15:20:00;99522.78;;;4.40;89.81
68634;BME280;55625;47.072;22.192;2023-02-01T15:22:29;99531.38;;;4.63;90.45
68634;BME280;55625;47.072;22.192;2023-02-01T15:24:58;99522.47;;;4.68;90.06
68634;BME280;55625;47.072;22.192;2023-02-01T15:27:27;99522.56;;;4.61;91.31
68634;BME280;55625;47.072;22.192;2023-02-01T15:29:53;99536.38;;;4.45;92.56
68634;BME280;55625;47.072;22.192;2023-02-01T15:32:38;99536.78;;;4.44;94.61
68634;BME280;55625;47.072;22.192;2023-02-01T15:35:05;99541.69;;;4.36;94.74
68634;BME280;55625;47.072;22.192;2023-02-01T15:37:51;99549.09;;;4.16;95.22
68634;BME280;55625;47.072;22.192;2023-02-01T15:40:21;99548.44;;;4.01;96.09
68634;BME280;55625;47.072;22.192;2023-02-01T15:42:55;99543.31;;;3.85;97.68
68634;BME280;55625;47.072;22.192;2023-02-01T15:45:26;99554.25;;;3.72;98.69
68634;BME280;55625;47.072;22.192;2023-02-01T15:47:55;99546.28;;;3.67;99.15
68634;BME280;55625;47.072;22.192;2023-02-01T15:50:22;99552.63;;;3.75;98.62